sensor_id;sensor_type;location;lat;lon;timestamp;P1;durP1;ratioP1;P2;durP2;ratioP2
33160;SDS011;19522;45.656;11.302;2023-02-11T00:01:32;25.65;;;15.55;;
33160;SDS011;19522;45.656;11.302;2023-02-11T00:03:59;30.88;;;16.00;;
33160;SDS011;19522;45.656;11.302;2023-02-11T00:06:27;42.15;;;20.58;;
33160;SDS011;19522;45.656;11.302;2023-02-11T00:08:57;35.47;;;18.98;;
33160;SDS011;19522;45.656;11.302;2023-02-11T00:11:23;29.38;;;14.20;;
33160;SDS011;19522;45.656;11.302;2023-02-11T00:13:50;32.60;;;15.63;;
33160;SDS011;19522;45.656;11.302;2023-02-11T00:16:19;31.35;;;15.27;;
33160;SDS011;19522;45.656;11.302;2023-02-11T00:18:45;37.55;;;16.92;;
33160;SDS011;19522;45.656;11.302;2023-02-11T00:21:12;43.63;;;19.92;;
33160;SDS011;19522;45.656;11.302;2023-02-11T00:23:39;23.45;;;12.77;;
33160;SDS011;19522;45.656;11.302;2023-02-11T00:26:15;19.88;;;12.88;;
33160;SDS011;19522;45.656;11.302;2023-02-11T00:28:43;21.35;;;11.82;;
33160;SDS011;19522;45.656;11.302;2023-02-11T00:31:09;19.90;;;12.07;;
33160;SDS011;19522;45.656;11.302;2023-02-11T00:33:35;18.60;;;10.32;;
33160;SDS011;19522;45.656;11.302;2023-02-11T00:36:04;17.40;;;10.50;;
33160;SDS011;19522;45.656;11.302;2023-02-11T00:38:31;14.85;;;9.15;;
33160;SDS011;19522;45.656;11.302;2023-02-11T00:40:57;17.25;;;9.57;;
33160;SDS011;19522;45.656;11.302;2023-02-11T00:43:22;16.60;;;9.55;;
33160;SDS011;19522;45.656;11.302;2023-02-11T00:45:48;14.98;;;8.90;;
33160;SDS011;19522;45.656;11.302;2023-02-11T00:48:13;19.92;;;10.75;;
33160;SDS011;19522;45.656;11.302;2023-02-11T00:50:39;15.15;;;9.38;;
33160;SDS011;19522;45.656;11.302;2023-02-11T00:53:04;16.90;;;9.73;;
33160;SDS011;19522;45.656;11.302;2023-02-11T00:55:30;17.30;;;9.95;;
33160;SDS011;19522;45.656;11.302;2023-02-11T00:57:55;17.60;;;10.40;;
33160;SDS011;19522;45.656;11.302;2023-02-11T01:00:22;19.25;;;11.07;;
33160;SDS011;19522;45.656;11.302;2023-02-11T01:02:48;19.58;;;12.02;;
33160;SDS011;19522;45.656;11.302;2023-02-11T01:05:17;20.90;;;12.30;;
33160;SDS011;19522;45.656;11.302;2023-02-11T01:07:43;20.30;;;11.88;;
33160;SDS011;19522;45.656;11.302;2023-02-11T01:10:08;21.67;;;11.27;;
33160;SDS011;19522;45.656;11.302;2023-02-11T01:12:37;22.60;;;13.30;;
33160;SDS011;19522;45.656;11.302;2023-02-11T01:15:05;19.10;;;10.88;;
33160;SDS011;19522;45.656;11.302;2023-02-11T01:17:32;18.10;;;10.10;;
33160;SDS011;19522;45.656;11.302;2023-02-11T01:20:00;17.00;;;10.52;;
33160;SDS011;19522;45.656;11.302;2023-02-11T01:22:30;17.27;;;9.43;;
33160;SDS011;19522;45.656;11.302;2023-02-11T01:24:56;17.80;;;10.15;;
33160;SDS011;19522;45.656;11.302;2023-02-11T01:27:21;15.05;;;8.80;;
33160;SDS011;19522;45.656;11.302;2023-02-11T01:29:47;12.73;;;7.95;;
33160;SDS011;19522;45.656;11.302;2023-02-11T01:32:12;13.43;;;8.55;;
33160;SDS011;19522;45.656;11.302;2023-02-11T01:34:40;14.35;;;7.40;;
33160;SDS011;19522;45.656;11.302;2023-02-11T01:37:06;15.73;;;8.32;;
33160;SDS011;19522;45.656;11.302;2023-02-11T01:39:32;15.07;;;8.90;;
33160;SDS011;19522;45.656;11.302;2023-02-11T01:41:58;33.20;;;17.17;;
33160;SDS011;19522;45.656;11.302;2023-02-11T01:44:32;14.88;;;8.30;;
33160;SDS011;19522;45.656;11.302;2023-02-11T01:47:01;12.65;;;8.27;;
33160;SDS011;19522;45.656;11.302;2023-02-11T01:49:31;11.10;;;8.07;;
33160;SDS011;19522;45.656;11.302;2023-02-11T01:52:08;15.45;;;8.10;;
33160;SDS011;19522;45.656;11.302;2023-02-11T01:55:03;12.77;;;7.80;;
33160;SDS011;19522;45.656;11.302;2023-02-11T01:57:51;13.20;;;8.30;;
33160;SDS011;19522;45.656;11.302;2023-02-11T02:00:33;12.75;;;7.90;;
33160;SDS011;19522;45.656;11.302;2023-02-11T02:05:48;15.48;;;8.55;;
33160;SDS011;19522;45.656;11.302;2023-02-11T02:08:30;16.17;;;8.60;;
33160;SDS011;19522;45.656;11.302;2023-02-11T02:11:06;28.85;;;13.98;;
33160;SDS011;19522;45.656;11.302;2023-02-11T02:13:33;21.70;;;11.45;;
33160;SDS011;19522;45.656;11.302;2023-02-11T02:16:04;21.85;;;12.27;;
33160;SDS011;19522;45.656;11.302;2023-02-11T02:23:51;15.98;;;9.82;;
33160;SDS011;19522;45.656;11.302;2023-02-11T02:32:08;12.13;;;7.88;;
33160;SDS011;19522;45.656;11.302;2023-02-11T02:34:47;13.38;;;8.88;;
33160;SDS011;19522;45.656;11.302;2023-02-11T02:37:17;13.63;;;7.90;;
33160;SDS011;19522;45.656;11.302;2023-02-11T02:39:45;12.98;;;8.07;;
33160;SDS011;19522;45.656;11.302;2023-02-11T02:42:14;20.52;;;9.27;;
33160;SDS011;19522;45.656;11.302;2023-02-11T02:44:46;16.45;;;9.18;;
33160;SDS011;19522;45.656;11.302;2023-02-11T02:47:13;19.27;;;9.90;;
33160;SDS011;19522;45.656;11.302;2023-02-11T02:49:38;14.52;;;8.95;;
33160;SDS011;19522;45.656;11.302;2023-02-11T03:02:41;15.48;;;7.95;;
33160;SDS011;19522;45.656;11.302;2023-02-11T03:08:24;14.32;;;8.15;;
33160;SDS011;19522;45.656;11.302;2023-02-11T03:10:49;11.73;;;7.10;;
33160;SDS011;19522;45.656;11.302;2023-02-11T03:13:17;11.85;;;7.10;;
33160;SDS011;19522;45.656;11.302;2023-02-11T03:15:48;13.40;;;6.93;;
33160;SDS011;19522;45.656;11.302;2023-02-11T03:18:17;11.18;;;6.63;;
33160;SDS011;19522;45.656;11.302;2023-02-11T03:20:46;10.48;;;6.57;;
33160;SDS011;19522;45.656;11.302;2023-02-11T03:23:20;11.32;;;7.35;;
33160;SDS011;19522;45.656;11.302;2023-02-11T03:25:55;11.80;;;6.88;;
33160;SDS011;19522;45.656;11.302;2023-02-11T03:30:57;12.80;;;7.22;;
33160;SDS011;19522;45.656;11.302;2023-02-11T03:33:28;15.32;;;7.22;;
33160;SDS011;19522;45.656;11.302;2023-02-11T03:36:05;11.35;;;7.60;;
33160;SDS011;19522;45.656;11.302;2023-02-11T03:38:41;14.35;;;8.13;;
33160;SDS011;19522;45.656;11.302;2023-02-11T03:41:12;11.88;;;7.53;;
33160;SDS011;19522;45.656;11.302;2023-02-11T03:43:43;10.35;;;7.15;;
33160;SDS011;19522;45.656;11.302;2023-02-11T03:46:13;10.20;;;6.32;;
33160;SDS011;19522;45.656;11.302;2023-02-11T03:48:43;13.27;;;7.60;;
33160;SDS011;19522;45.656;11.302;2023-02-11T03:51:13;12.15;;;6.95;;
33160;SDS011;19522;45.656;11.302;2023-02-11T03:53:44;12.48;;;7.30;;
33160;SDS011;19522;45.656;11.302;2023-02-11T03:56:15;12.20;;;6.85;;
33160;SDS011;19522;45.656;11.302;2023-02-11T03:58:44;9.80;;;6.72;;
33160;SDS011;19522;45.656;11.302;2023-02-11T04:01:16;10.32;;;6.20;;
33160;SDS011;19522;45.656;11.302;2023-02-11T04:03:42;10.60;;;6.32;;
33160;SDS011;19522;45.656;11.302;2023-02-11T04:06:07;13.23;;;6.75;;
33160;SDS011;19522;45.656;11.302;2023-02-11T04:08:34;12.38;;;6.95;;
33160;SDS011;19522;45.656;11.302;2023-02-11T04:10:59;10.50;;;7.07;;
33160;SDS011;19522;45.656;11.302;2023-02-11T04:13:25;11.57;;;7.00;;
33160;SDS011;19522;45.656;11.302;2023-02-11T04:15:50;10.88;;;6.20;;
33160;SDS011;19522;45.656;11.302;2023-02-11T04:18:16;10.48;;;6.28;;
33160;SDS011;19522;45.656;11.302;2023-02-11T04:20:41;11.25;;;6.68;;
33160;SDS011;19522;45.656;11.302;2023-02-11T04:23:07;11.68;;;7.15;;
33160;SDS011;19522;45.656;11.302;2023-02-11T04:25:34;10.98;;;7.00;;
33160;SDS011;19522;45.656;11.302;2023-02-11T04:27:59;10.90;;;6.47;;
33160;SDS011;19522;45.656;11.302;2023-02-11T04:30:25;12.68;;;6.60;;
33160;SDS011;19522;45.656;11.302;2023-02-11T04:32:50;10.38;;;6.28;;
33160;SDS011;19522;45.656;11.302;2023-02-11T04:35:18;9.45;;;6.43;;
33160;SDS011;19522;45.656;11.302;2023-02-11T04:37:43;12.75;;;6.97;;
33160;SDS011;19522;45.656;11.302;2023-02-11T04:40:12;10.35;;;6.47;;
33160;SDS011;19522;45.656;11.302;2023-02-11T04:42:37;11.18;;;6.93;;
33160;SDS011;19522;45.656;11.302;2023-02-11T04:45:03;11.50;;;6.88;;
33160;SDS011;19522;45.656;11.302;2023-02-11T04:47:29;12.32;;;6.65;;
33160;SDS011;19522;45.656;11.302;2023-02-11T04:49:54;11.10;;;6.57;;
33160;SDS011;19522;45.656;11.302;2023-02-11T04:52:20;12.45;;;7.70;;
33160;SDS011;19522;45.656;11.302;2023-02-11T04:54:45;12.02;;;7.13;;
33160;SDS011;19522;45.656;11.302;2023-02-11T04:57:11;10.23;;;7.47;;
33160;SDS011;19522;45.656;11.302;2023-02-11T04:59:36;8.90;;;6.43;;
33160;SDS011;19522;45.656;11.302;2023-02-11T05:02:02;10.70;;;6.97;;
33160;SDS011;19522;45.656;11.302;2023-02-11T05:04:28;11.60;;;7.30;;
33160;SDS011;19522;45.656;11.302;2023-02-11T05:06:54;10.18;;;6.72;;
33160;SDS011;19522;45.656;11.302;2023-02-11T05:09:19;10.68;;;6.55;;
33160;SDS011;19522;45.656;11.302;2023-02-11T05:11:45;13.25;;;7.07;;
33160;SDS011;19522;45.656;11.302;2023-02-11T05:14:10;12.00;;;6.80;;
33160;SDS011;19522;45.656;11.302;2023-02-11T05:16:36;11.00;;;6.80;;
33160;SDS011;19522;45.656;11.302;2023-02-11T05:19:02;11.90;;;6.57;;
33160;SDS011;19522;45.656;11.302;2023-02-11T05:21:27;8.52;;;6.10;;
33160;SDS011;19522;45.656;11.302;2023-02-11T05:23:53;11.55;;;6.75;;
33160;SDS011;19522;45.656;11.302;2023-02-11T05:26:18;11.35;;;6.90;;
33160;SDS011;19522;45.656;11.302;2023-02-11T05:28:44;12.25;;;6.95;;
33160;SDS011;19522;45.656;11.302;2023-02-11T05:31:10;10.38;;;6.45;;
33160;SDS011;19522;45.656;11.302;2023-02-11T05:33:36;10.88;;;6.20;;
33160;SDS011;19522;45.656;11.302;2023-02-11T05:36:03;10.18;;;6.03;;
33160;SDS011;19522;45.656;11.302;2023-02-11T05:38:31;11.15;;;7.10;;
33160;SDS011;19522;45.656;11.302;2023-02-11T05:40:57;22.77;;;11.35;;
33160;SDS011;19522;45.656;11.302;2023-02-11T05:43:22;15.57;;;9.02;;
33160;SDS011;19522;45.656;11.302;2023-02-11T05:45:48;30.63;;;16.63;;
33160;SDS011;19522;45.656;11.302;2023-02-11T05:48:13;15.95;;;10.07;;
33160;SDS011;19522;45.656;11.302;2023-02-11T05:50:42;20.08;;;14.18;;
33160;SDS011;19522;45.656;11.302;2023-02-11T05:53:08;19.23;;;15.75;;
33160;SDS011;19522;45.656;11.302;2023-02-11T05:55:33;14.60;;;10.10;;
33160;SDS011;19522;45.656;11.302;2023-02-11T05:57:59;13.05;;;9.82;;
33160;SDS011;19522;45.656;11.302;2023-02-11T06:00:25;17.45;;;10.70;;
33160;SDS011;19522;45.656;11.302;2023-02-11T06:02:50;12.93;;;10.43;;
33160;SDS011;19522;45.656;11.302;2023-02-11T06:05:16;14.70;;;9.32;;
33160;SDS011;19522;45.656;11.302;2023-02-11T06:07:42;14.07;;;9.90;;
33160;SDS011;19522;45.656;11.302;2023-02-11T06:10:07;15.38;;;10.15;;
33160;SDS011;19522;45.656;11.302;2023-02-11T06:12:34;14.70;;;9.32;;
33160;SDS011;19522;45.656;11.302;2023-02-11T06:15:01;14.20;;;8.70;;
33160;SDS011;19522;45.656;11.302;2023-02-11T06:17:26;13.88;;;8.30;;
33160;SDS011;19522;45.656;11.302;2023-02-11T06:19:55;14.45;;;8.38;;
33160;SDS011;19522;45.656;11.302;2023-02-11T06:22:21;13.65;;;8.30;;
33160;SDS011;19522;45.656;11.302;2023-02-11T06:24:46;16.88;;;10.88;;
33160;SDS011;19522;45.656;11.302;2023-02-11T06:27:12;27.38;;;11.52;;
33160;SDS011;19522;45.656;11.302;2023-02-11T06:29:37;15.00;;;10.30;;
33160;SDS011;19522;45.656;11.302;2023-02-11T06:32:03;13.13;;;7.78;;
33160;SDS011;19522;45.656;11.302;2023-02-11T06:34:28;15.90;;;8.98;;
33160;SDS011;19522;45.656;11.302;2023-02-11T06:36:54;14.55;;;8.50;;
33160;SDS011;19522;45.656;11.302;2023-02-11T06:39:19;12.77;;;8.32;;
33160;SDS011;19522;45.656;11.302;2023-02-11T06:41:45;16.85;;;9.23;;
33160;SDS011;19522;45.656;11.302;2023-02-11T06:44:10;15.30;;;9.05;;
33160;SDS011;19522;45.656;11.302;2023-02-11T06:46:36;16.77;;;9.10;;
33160;SDS011;19522;45.656;11.302;2023-02-11T06:49:01;16.48;;;9.60;;
33160;SDS011;19522;45.656;11.302;2023-02-11T06:51:27;15.05;;;9.30;;
33160;SDS011;19522;45.656;11.302;2023-02-11T06:53:55;17.90;;;10.82;;
33160;SDS011;19522;45.656;11.302;2023-02-11T06:56:21;23.80;;;12.10;;
33160;SDS011;19522;45.656;11.302;2023-02-11T06:58:51;21.17;;;12.07;;
33160;SDS011;19522;45.656;11.302;2023-02-11T07:01:20;18.20;;;11.50;;
33160;SDS011;19522;45.656;11.302;2023-02-11T07:03:46;16.48;;;10.40;;
33160;SDS011;19522;45.656;11.302;2023-02-11T07:06:13;16.00;;;11.30;;
33160;SDS011;19522;45.656;11.302;2023-02-11T07:08:40;15.18;;;10.77;;
33160;SDS011;19522;45.656;11.302;2023-02-11T07:11:25;24.75;;;16.20;;
33160;SDS011;19522;45.656;11.302;2023-02-11T07:13:58;36.17;;;22.13;;
33160;SDS011;19522;45.656;11.302;2023-02-11T07:16:25;134.57;;;63.42;;
33160;SDS011;19522;45.656;11.302;2023-02-11T07:18:50;129.15;;;64.43;;
33160;SDS011;19522;45.656;11.302;2023-02-11T07:21:17;111.65;;;55.05;;
33160;SDS011;19522;45.656;11.302;2023-02-11T07:23:45;67.65;;;33.88;;
33160;SDS011;19522;45.656;11.302;2023-02-11T07:26:13;47.13;;;24.63;;
33160;SDS011;19522;45.656;11.302;2023-02-11T07:28:40;30.23;;;16.58;;
33160;SDS011;19522;45.656;11.302;2023-02-11T07:31:07;30.77;;;15.00;;
33160;SDS011;19522;45.656;11.302;2023-02-11T07:33:37;45.95;;;24.35;;
33160;SDS011;19522;45.656;11.302;2023-02-11T07:36:03;31.45;;;18.70;;
33160;SDS011;19522;45.656;11.302;2023-02-11T07:38:31;30.67;;;17.35;;
33160;SDS011;19522;45.656;11.302;2023-02-11T07:41:00;37.67;;;19.40;;
33160;SDS011;19522;45.656;11.302;2023-02-11T07:43:27;31.77;;;18.48;;
33160;SDS011;19522;45.656;11.302;2023-02-11T07:45:52;33.08;;;19.30;;
33160;SDS011;19522;45.656;11.302;2023-02-11T07:48:18;36.05;;;21.35;;
33160;SDS011;19522;45.656;11.302;2023-02-11T07:50:44;46.53;;;29.10;;
33160;SDS011;19522;45.656;11.302;2023-02-11T07:53:09;35.10;;;22.40;;
33160;SDS011;19522;45.656;11.302;2023-02-11T07:55:35;32.28;;;21.20;;
33160;SDS011;19522;45.656;11.302;2023-02-11T07:58:00;42.40;;;28.00;;
33160;SDS011;19522;45.656;11.302;2023-02-11T08:00:26;33.50;;;22.95;;
33160;SDS011;19522;45.656;11.302;2023-02-11T08:03:00;34.25;;;21.70;;
33160;SDS011;19522;45.656;11.302;2023-02-11T08:05:29;27.73;;;18.25;;
33160;SDS011;19522;45.656;11.302;2023-02-11T08:07:54;27.98;;;17.65;;
33160;SDS011;19522;45.656;11.302;2023-02-11T08:10:23;27.00;;;17.13;;
33160;SDS011;19522;45.656;11.302;2023-02-11T08:12:49;26.67;;;16.42;;
33160;SDS011;19522;45.656;11.302;2023-02-11T08:15:15;53.60;;;28.45;;
33160;SDS011;19522;45.656;11.302;2023-02-11T08:17:41;47.78;;;25.33;;
33160;SDS011;19522;45.656;11.302;2023-02-11T08:20:06;26.20;;;16.30;;
33160;SDS011;19522;45.656;11.302;2023-02-11T08:22:33;23.00;;;14.63;;
33160;SDS011;19522;45.656;11.302;2023-02-11T08:24:59;26.70;;;16.75;;
33160;SDS011;19522;45.656;11.302;2023-02-11T08:27:25;24.80;;;15.98;;
33160;SDS011;19522;45.656;11.302;2023-02-11T08:29:54;23.45;;;15.82;;
33160;SDS011;19522;45.656;11.302;2023-02-11T08:32:20;23.40;;;15.35;;
33160;SDS011;19522;45.656;11.302;2023-02-11T08:34:49;24.15;;;16.38;;
33160;SDS011;19522;45.656;11.302;2023-02-11T08:37:15;24.27;;;15.13;;
33160;SDS011;19522;45.656;11.302;2023-02-11T08:39:44;25.70;;;15.70;;
33160;SDS011;19522;45.656;11.302;2023-02-11T08:42:11;22.98;;;16.02;;
33160;SDS011;19522;45.656;11.302;2023-02-11T08:44:39;27.77;;;17.70;;
33160;SDS011;19522;45.656;11.302;2023-02-11T08:47:06;25.92;;;16.08;;
33160;SDS011;19522;45.656;11.302;2023-02-11T08:49:31;28.38;;;16.90;;
33160;SDS011;19522;45.656;11.302;2023-02-11T08:52:00;29.52;;;16.23;;
33160;SDS011;19522;45.656;11.302;2023-02-11T08:54:28;23.27;;;14.80;;
33160;SDS011;19522;45.656;11.302;2023-02-11T08:56:54;25.08;;;15.75;;
33160;SDS011;19522;45.656;11.302;2023-02-11T08:59:20;22.95;;;13.77;;
33160;SDS011;19522;45.656;11.302;2023-02-11T09:01:45;23.77;;;15.00;;
33160;SDS011;19522;45.656;11.302;2023-02-11T09:04:11;24.65;;;15.85;;
33160;SDS011;19522;45.656;11.302;2023-02-11T09:06:37;22.63;;;15.27;;
33160;SDS011;19522;45.656;11.302;2023-02-11T09:09:03;23.25;;;14.57;;
33160;SDS011;19522;45.656;11.302;2023-02-11T09:11:30;24.30;;;13.70;;
33160;SDS011;19522;45.656;11.302;2023-02-11T09:13:58;20.15;;;14.05;;
33160;SDS011;19522;45.656;11.302;2023-02-11T09:16:25;24.10;;;15.18;;
33160;SDS011;19522;45.656;11.302;2023-02-11T09:18:54;22.63;;;13.77;;
33160;SDS011;19522;45.656;11.302;2023-02-11T09:21:20;23.10;;;14.70;;
33160;SDS011;19522;45.656;11.302;2023-02-11T09:23:46;27.17;;;16.20;;
33160;SDS011;19522;45.656;11.302;2023-02-11T09:26:16;26.45;;;17.38;;
33160;SDS011;19522;45.656;11.302;2023-02-11T09:28:44;19.73;;;12.07;;
33160;SDS011;19522;45.656;11.302;2023-02-11T09:31:11;15.88;;;9.80;;
33160;SDS011;19522;45.656;11.302;2023-02-11T09:33:39;18.33;;;11.30;;
33160;SDS011;19522;45.656;11.302;2023-02-11T09:36:12;17.55;;;10.98;;
33160;SDS011;19522;45.656;11.302;2023-02-11T09:38:46;19.60;;;10.88;;
33160;SDS011;19522;45.656;11.302;2023-02-11T09:41:24;22.08;;;10.00;;
33160;SDS011;19522;45.656;11.302;2023-02-11T09:44:24;16.95;;;10.63;;
33160;SDS011;19522;45.656;11.302;2023-02-11T09:46:56;17.55;;;11.25;;
33160;SDS011;19522;45.656;11.302;2023-02-11T09:49:29;15.02;;;10.65;;
33160;SDS011;19522;45.656;11.302;2023-02-11T09:52:24;15.38;;;11.15;;
33160;SDS011;19522;45.656;11.302;2023-02-11T09:54:59;17.20;;;10.98;;
33160;SDS011;19522;45.656;11.302;2023-02-11T09:57:33;14.48;;;10.38;;
33160;SDS011;19522;45.656;11.302;2023-02-11T10:00:01;13.80;;;8.07;;
33160;SDS011;19522;45.656;11.302;2023-02-11T10:24:18;14.93;;;10.55;;
33160;SDS011;19522;45.656;11.302;2023-02-11T10:26:44;18.30;;;10.43;;
33160;SDS011;19522;45.656;11.302;2023-02-11T10:29:12;18.52;;;10.65;;
33160;SDS011;19522;45.656;11.302;2023-02-11T10:31:41;17.50;;;11.48;;
33160;SDS011;19522;45.656;11.302;2023-02-11T10:34:09;16.77;;;12.32;;
33160;SDS011;19522;45.656;11.302;2023-02-11T10:36:38;21.48;;;13.45;;
33160;SDS011;19522;45.656;11.302;2023-02-11T10:39:16;22.00;;;13.30;;
33160;SDS011;19522;45.656;11.302;2023-02-11T10:41:54;17.35;;;13.07;;
33160;SDS011;19522;45.656;11.302;2023-02-11T10:44:26;20.63;;;14.48;;
33160;SDS011;19522;45.656;11.302;2023-02-11T10:46:55;21.75;;;15.18;;
33160;SDS011;19522;45.656;11.302;2023-02-11T10:52:27;24.83;;;14.93;;
33160;SDS011;19522;45.656;11.302;2023-02-11T10:57:34;20.55;;;15.27;;
33160;SDS011;19522;45.656;11.302;2023-02-11T11:00:50;21.38;;;14.88;;
33160;SDS011;19522;45.656;11.302;2023-02-11T11:03:06;20.10;;;13.80;;
33160;SDS011;19522;45.656;11.302;2023-02-11T11:05:46;21.33;;;13.85;;
33160;SDS011;19522;45.656;11.302;2023-02-11T11:08:13;16.48;;;11.38;;
33160;SDS011;19522;45.656;11.302;2023-02-11T11:11:02;19.25;;;11.77;;
33160;SDS011;19522;45.656;11.302;2023-02-11T11:13:37;22.65;;;12.70;;
33160;SDS011;19522;45.656;11.302;2023-02-11T11:16:19;18.08;;;12.90;;
33160;SDS011;19522;45.656;11.302;2023-02-11T11:19:13;19.50;;;13.00;;
33160;SDS011;19522;45.656;11.302;2023-02-11T11:21:49;17.23;;;12.75;;
33160;SDS011;19522;45.656;11.302;2023-02-11T11:24:24;17.02;;;11.77;;
33160;SDS011;19522;45.656;11.302;2023-02-11T11:26:54;21.35;;;13.60;;
33160;SDS011;19522;45.656;11.302;2023-02-11T11:29:32;21.90;;;13.85;;
33160;SDS011;19522;45.656;11.302;2023-02-11T11:37:18;23.73;;;14.05;;
33160;SDS011;19522;45.656;11.302;2023-02-11T11:39:58;20.83;;;12.93;;
33160;SDS011;19522;45.656;11.302;2023-02-11T11:44:55;21.48;;;14.45;;
33160;SDS011;19522;45.656;11.302;2023-02-11T11:47:33;18.85;;;14.35;;
33160;SDS011;19522;45.656;11.302;2023-02-11T11:50:24;22.98;;;16.45;;
33160;SDS011;19522;45.656;11.302;2023-02-11T11:53:05;22.95;;;15.35;;
33160;SDS011;19522;45.656;11.302;2023-02-11T11:56:02;24.73;;;17.20;;
33160;SDS011;19522;45.656;11.302;2023-02-11T11:58:33;24.92;;;15.13;;
33160;SDS011;19522;45.656;11.302;2023-02-11T12:01:19;21.42;;;14.68;;
33160;SDS011;19522;45.656;11.302;2023-02-11T12:20:36;25.45;;;16.38;;
33160;SDS011;19522;45.656;11.302;2023-02-11T12:23:13;26.67;;;17.48;;
33160;SDS011;19522;45.656;11.302;2023-02-11T12:50:37;27.98;;;18.23;;
33160;SDS011;19522;45.656;11.302;2023-02-11T12:56:28;26.08;;;17.67;;
33160;SDS011;19522;45.656;11.302;2023-02-11T12:59:11;28.23;;;18.98;;
33160;SDS011;19522;45.656;11.302;2023-02-11T13:01:41;27.83;;;18.77;;
33160;SDS011;19522;45.656;11.302;2023-02-11T13:04:24;24.85;;;18.10;;
33160;SDS011;19522;45.656;11.302;2023-02-11T13:06:58;29.80;;;19.08;;
33160;SDS011;19522;45.656;11.302;2023-02-11T13:09:38;30.10;;;20.33;;
33160;SDS011;19522;45.656;11.302;2023-02-11T13:12:12;28.08;;;21.08;;
33160;SDS011;19522;45.656;11.302;2023-02-11T13:17:28;28.35;;;20.25;;
33160;SDS011;19522;45.656;11.302;2023-02-11T13:20:02;28.88;;;20.48;;
33160;SDS011;19522;45.656;11.302;2023-02-11T13:22:43;27.95;;;20.15;;
33160;SDS011;19522;45.656;11.302;2023-02-11T13:25:34;28.50;;;20.60;;
33160;SDS011;19522;45.656;11.302;2023-02-11T13:30:58;27.90;;;20.17;;
33160;SDS011;19522;45.656;11.302;2023-02-11T13:33:34;25.80;;;18.13;;
33160;SDS011;19522;45.656;11.302;2023-02-11T13:38:27;26.88;;;20.23;;
33160;SDS011;19522;45.656;11.302;2023-02-11T13:43:46;30.45;;;20.45;;
33160;SDS011;19522;45.656;11.302;2023-02-11T13:46:22;26.58;;;19.52;;
33160;SDS011;19522;45.656;11.302;2023-02-11T13:48:48;28.52;;;20.40;;
33160;SDS011;19522;45.656;11.302;2023-02-11T13:51:17;28.30;;;20.80;;
33160;SDS011;19522;45.656;11.302;2023-02-11T13:54:02;27.25;;;20.55;;
33160;SDS011;19522;45.656;11.302;2023-02-11T13:56:29;29.42;;;20.77;;
33160;SDS011;19522;45.656;11.302;2023-02-11T13:58:55;30.25;;;20.05;;
33160;SDS011;19522;45.656;11.302;2023-02-11T14:10:59;29.27;;;20.80;;
33160;SDS011;19522;45.656;11.302;2023-02-11T14:13:35;32.80;;;22.10;;
33160;SDS011;19522;45.656;11.302;2023-02-11T14:16:21;32.80;;;22.25;;
33160;SDS011;19522;45.656;11.302;2023-02-11T14:23:43;31.80;;;22.33;;
33160;SDS011;19522;45.656;11.302;2023-02-11T14:28:40;35.75;;;22.50;;
33160;SDS011;19522;45.656;11.302;2023-02-11T14:31:13;33.30;;;22.15;;
33160;SDS011;19522;45.656;11.302;2023-02-11T14:37:09;29.40;;;21.45;;
33160;SDS011;19522;45.656;11.302;2023-02-11T14:39:45;37.25;;;23.75;;
33160;SDS011;19522;45.656;11.302;2023-02-11T14:42:17;31.92;;;23.27;;
33160;SDS011;19522;45.656;11.302;2023-02-11T14:44:49;35.00;;;23.35;;
33160;SDS011;19522;45.656;11.302;2023-02-11T14:48:02;35.88;;;23.13;;
33160;SDS011;19522;45.656;11.302;2023-02-11T14:50:40;35.88;;;24.30;;
33160;SDS011;19522;45.656;11.302;2023-02-11T14:53:14;35.42;;;23.52;;
33160;SDS011;19522;45.656;11.302;2023-02-11T14:55:43;35.35;;;24.50;;
33160;SDS011;19522;45.656;11.302;2023-02-11T14:58:20;27.67;;;19.25;;
33160;SDS011;19522;45.656;11.302;2023-02-11T15:00:58;38.55;;;26.20;;
33160;SDS011;19522;45.656;11.302;2023-02-11T15:03:47;41.50;;;25.08;;
33160;SDS011;19522;45.656;11.302;2023-02-11T15:06:17;42.17;;;27.08;;
33160;SDS011;19522;45.656;11.302;2023-02-11T15:08:53;39.63;;;26.52;;
33160;SDS011;19522;45.656;11.302;2023-02-11T15:11:25;36.65;;;25.90;;
33160;SDS011;19522;45.656;11.302;2023-02-11T15:13:52;39.10;;;26.23;;
33160;SDS011;19522;45.656;11.302;2023-02-11T15:16:21;36.70;;;26.80;;
33160;SDS011;19522;45.656;11.302;2023-02-11T15:18:53;40.08;;;27.45;;
33160;SDS011;19522;45.656;11.302;2023-02-11T15:21:31;38.67;;;27.42;;
33160;SDS011;19522;45.656;11.302;2023-02-11T15:24:17;40.45;;;27.42;;
33160;SDS011;19522;45.656;11.302;2023-02-11T15:26:44;38.92;;;25.73;;
33160;SDS011;19522;45.656;11.302;2023-02-11T15:29:19;42.95;;;27.50;;
33160;SDS011;19522;45.656;11.302;2023-02-11T15:31:52;39.25;;;26.85;;
33160;SDS011;19522;45.656;11.302;2023-02-11T15:34:28;39.20;;;26.88;;
33160;SDS011;19522;45.656;11.302;2023-02-11T15:36:53;40.80;;;28.42;;
33160;SDS011;19522;45.656;11.302;2023-02-11T15:39:29;42.08;;;27.65;;
33160;SDS011;19522;45.656;11.302;2023-02-11T15:42:17;39.60;;;26.38;;
33160;SDS011;19522;45.656;11.302;2023-02-11T15:44:46;41.42;;;25.98;;
33160;SDS011;19522;45.656;11.302;2023-02-11T15:47:17;36.05;;;26.40;;
33160;SDS011;19522;45.656;11.302;2023-02-11T15:49:45;41.30;;;29.00;;
33160;SDS011;19522;45.656;11.302;2023-02-11T15:52:12;45.13;;;29.10;;
33160;SDS011;19522;45.656;11.302;2023-02-11T15:54:45;41.35;;;27.17;;
33160;SDS011;19522;45.656;11.302;2023-02-11T15:57:12;40.67;;;27.45;;
33160;SDS011;19522;45.656;11.302;2023-02-11T15:59:39;44.83;;;29.17;;
33160;SDS011;19522;45.656;11.302;2023-02-11T16:04:56;43.97;;;29.13;;
33160;SDS011;19522;45.656;11.302;2023-02-11T16:10:31;42.17;;;29.33;;
33160;SDS011;19522;45.656;11.302;2023-02-11T16:13:01;41.55;;;28.88;;
33160;SDS011;19522;45.656;11.302;2023-02-11T16:18:26;50.78;;;31.20;;
33160;SDS011;19522;45.656;11.302;2023-02-11T16:20:52;51.08;;;31.90;;
33160;SDS011;19522;45.656;11.302;2023-02-11T16:23:37;47.03;;;31.05;;
33160;SDS011;19522;45.656;11.302;2023-02-11T16:26:07;48.70;;;32.63;;
33160;SDS011;19522;45.656;11.302;2023-02-11T16:28:37;71.63;;;42.58;;
33160;SDS011;19522;45.656;11.302;2023-02-11T16:31:03;70.32;;;43.15;;
33160;SDS011;19522;45.656;11.302;2023-02-11T16:33:30;57.55;;;37.75;;
33160;SDS011;19522;45.656;11.302;2023-02-11T16:35:55;53.75;;;35.30;;
33160;SDS011;19522;45.656;11.302;2023-02-11T16:38:21;50.13;;;32.78;;
33160;SDS011;19522;45.656;11.302;2023-02-11T16:40:48;56.55;;;34.80;;
33160;SDS011;19522;45.656;11.302;2023-02-11T16:43:16;51.15;;;34.65;;
33160;SDS011;19522;45.656;11.302;2023-02-11T16:45:43;59.35;;;35.25;;
33160;SDS011;19522;45.656;11.302;2023-02-11T16:48:11;59.15;;;36.58;;
33160;SDS011;19522;45.656;11.302;2023-02-11T16:50:42;64.13;;;39.40;;
33160;SDS011;19522;45.656;11.302;2023-02-11T16:53:10;59.38;;;37.17;;
33160;SDS011;19522;45.656;11.302;2023-02-11T16:55:37;59.28;;;36.78;;
33160;SDS011;19522;45.656;11.302;2023-02-11T16:58:02;56.22;;;37.47;;
33160;SDS011;19522;45.656;11.302;2023-02-11T17:00:28;56.70;;;37.47;;